sensor_id;sensor_type;location;lat;lon;timestamp;P1;durP1;ratioP1;P2;durP2;ratioP2
67717;SDS011;54511;47.532;19.180;2022-11-15T00:02:23;0.75;;;0.75;;
67717;SDS011;54511;47.532;19.180;2022-11-15T00:04:50;1.83;;;1.48;;
67717;SDS011;54511;47.532;19.180;2022-11-15T00:07:17;1.25;;;1.00;;
67717;SDS011;54511;47.532;19.180;2022-11-15T00:09:44;1.48;;;0.90;;
67717;SDS011;54511;47.532;19.180;2022-11-15T00:12:12;2.05;;;0.80;;
67717;SDS011;54511;47.532;19.180;2022-11-15T00:14:40;6.28;;;1.48;;
67717;SDS011;54511;47.532;19.180;2022-11-15T00:17:07;2.90;;;1.75;;
67717;SDS011;54511;47.532;19.180;2022-11-15T00:19:34;1.75;;;1.40;;
67717;SDS011;54511;47.532;19.180;2022-11-15T00:22:01;2.10;;;1.12;;
67717;SDS011;54511;47.532;19.180;2022-11-15T00:24:27;2.55;;;0.90;;
67717;SDS011;54511;47.532;19.180;2022-11-15T00:26:54;1.55;;;1.45;;
67717;SDS011;54511;47.532;19.180;2022-11-15T00:29:21;1.95;;;1.75;;
67717;SDS011;54511;47.532;19.180;2022-11-15T00:31:51;1.52;;;1.42;;
67717;SDS011;54511;47.532;19.180;2022-11-15T00:34:18;1.62;;;1.52;;
67717;SDS011;54511;47.532;19.180;2022-11-15T00:36:45;1.10;;;0.70;;
67717;SDS011;54511;47.532;19.180;2022-11-15T00:39:12;5.50;;;1.05;;
67717;SDS011;54511;47.532;19.180;2022-11-15T00:41:39;2.90;;;1.65;;
67717;SDS011;54511;47.532;19.180;2022-11-15T00:44:06;1.02;;;1.02;;
67717;SDS011;54511;47.532;19.180;2022-11-15T00:46:33;2.90;;;2.45;;
67717;SDS011;54511;47.532;19.180;2022-11-15T00:49:01;3.78;;;1.98;;
67717;SDS011;54511;47.532;19.180;2022-11-15T00:51:29;1.98;;;1.80;;
67717;SDS011;54511;47.532;19.180;2022-11-15T00:53:56;2.53;;;2.33;;
67717;SDS011;54511;47.532;19.180;2022-11-15T00:56:23;6.47;;;1.70;;
67717;SDS011;54511;47.532;19.180;2022-11-15T00:58:50;7.43;;;1.67;;
67717;SDS011;54511;47.532;19.180;2022-11-15T01:01:16;2.12;;;1.95;;
67717;SDS011;54511;47.532;19.180;2022-11-15T01:03:43;5.22;;;1.62;;
67717;SDS011;54511;47.532;19.180;2022-11-15T01:06:11;0.52;;;0.52;;
67717;SDS011;54511;47.532;19.180;2022-11-15T01:08:38;4.37;;;2.03;;
67717;SDS011;54511;47.532;19.180;2022-11-15T01:11:06;3.05;;;1.87;;
67717;SDS011;54511;47.532;19.180;2022-11-15T01:13:34;4.00;;;1.85;;
67717;SDS011;54511;47.532;19.180;2022-11-15T01:16:05;3.80;;;1.70;;
67717;SDS011;54511;47.532;19.180;2022-11-15T01:18:33;3.50;;;1.57;;
67717;SDS011;54511;47.532;19.180;2022-11-15T01:21:04;2.05;;;1.75;;
67717;SDS011;54511;47.532;19.180;2022-11-15T01:23:33;2.72;;;1.85;;
67717;SDS011;54511;47.532;19.180;2022-11-15T01:26:00;2.42;;;1.77;;
67717;SDS011;54511;47.532;19.180;2022-11-15T01:28:29;0.73;;;0.70;;
67717;SDS011;54511;47.532;19.180;2022-11-15T01:30:57;2.83;;;2.22;;
67717;SDS011;54511;47.532;19.180;2022-11-15T01:33:24;3.17;;;2.83;;
67717;SDS011;54511;47.532;19.180;2022-11-15T01:35:51;2.70;;;1.77;;
67717;SDS011;54511;47.532;19.180;2022-11-15T01:38:18;3.00;;;1.60;;
67717;SDS011;54511;47.532;19.180;2022-11-15T01:40:46;2.60;;;0.80;;
67717;SDS011;54511;47.532;19.180;2022-11-15T01:43:20;2.50;;;1.98;;
67717;SDS011;54511;47.532;19.180;2022-11-15T01:45:49;0.85;;;0.75;;
67717;SDS011;54511;47.532;19.180;2022-11-15T01:48:18;1.02;;;0.65;;
67717;SDS011;54511;47.532;19.180;2022-11-15T01:50:45;0.60;;;0.60;;
67717;SDS011;54511;47.532;19.180;2022-11-15T01:53:12;4.53;;;0.90;;
67717;SDS011;54511;47.532;19.180;2022-11-15T01:55:39;5.28;;;1.65;;
67717;SDS011;54511;47.532;19.180;2022-11-15T01:58:08;1.25;;;0.95;;
67717;SDS011;54511;47.532;19.180;2022-11-15T02:00:35;1.15;;;0.30;;
67717;SDS011;54511;47.532;19.180;2022-11-15T02:03:01;1.20;;;0.82;;
67717;SDS011;54511;47.532;19.180;2022-11-15T02:05:28;1.62;;;1.48;;
67717;SDS011;54511;47.532;19.180;2022-11-15T02:07:56;1.15;;;1.05;;
67717;SDS011;54511;47.532;19.180;2022-11-15T02:10:24;1.05;;;0.93;;
67717;SDS011;54511;47.532;19.180;2022-11-15T02:12:51;1.85;;;1.17;;
67717;SDS011;54511;47.532;19.180;2022-11-15T02:15:20;1.25;;;1.02;;
67717;SDS011;54511;47.532;19.180;2022-11-15T02:17:50;1.95;;;1.25;;
67717;SDS011;54511;47.532;19.180;2022-11-15T02:23:19;1.92;;;1.15;;
67717;SDS011;54511;47.532;19.180;2022-11-15T02:26:21;1.73;;;0.98;;
67717;SDS011;54511;47.532;19.180;2022-11-15T02:29:01;2.85;;;1.15;;
67717;SDS011;54511;47.532;19.180;2022-11-15T02:31:33;2.12;;;1.85;;
67717;SDS011;54511;47.532;19.180;2022-11-15T02:34:05;2.58;;;1.48;;
67717;SDS011;54511;47.532;19.180;2022-11-15T02:36:36;1.90;;;1.25;;
67717;SDS011;54511;47.532;19.180;2022-11-15T02:39:09;1.10;;;0.73;;
67717;SDS011;54511;47.532;19.180;2022-11-15T02:41:39;1.85;;;1.50;;
67717;SDS011;54511;47.532;19.180;2022-11-15T02:44:12;1.17;;;1.00;;
67717;SDS011;54511;47.532;19.180;2022-11-15T02:46:41;2.60;;;2.08;;
67717;SDS011;54511;47.532;19.180;2022-11-15T02:49:27;2.70;;;1.83;;
67717;SDS011;54511;47.532;19.180;2022-11-15T02:51:55;3.37;;;1.67;;
67717;SDS011;54511;47.532;19.180;2022-11-15T02:54:23;1.00;;;0.93;;
67717;SDS011;54511;47.532;19.180;2022-11-15T02:56:51;1.95;;;1.73;;
67717;SDS011;54511;47.532;19.180;2022-11-15T02:59:23;2.60;;;1.62;;
67717;SDS011;54511;47.532;19.180;2022-11-15T03:02:20;0.88;;;0.88;;
67717;SDS011;54511;47.532;19.180;2022-11-15T03:05:02;0.73;;;0.50;;
67717;SDS011;54511;47.532;19.180;2022-11-15T03:07:32;0.57;;;0.57;;
67717;SDS011;54511;47.532;19.180;2022-11-15T03:10:05;1.50;;;1.37;;
67717;SDS011;54511;47.532;19.180;2022-11-15T03:12:34;2.83;;;1.20;;
67717;SDS011;54511;47.532;19.180;2022-11-15T03:15:05;0.57;;;0.57;;
67717;SDS011;54511;47.532;19.180;2022-11-15T03:17:36;2.15;;;1.17;;
67717;SDS011;54511;47.532;19.180;2022-11-15T03:20:06;1.42;;;1.33;;
67717;SDS011;54511;47.532;19.180;2022-11-15T03:22:35;0.68;;;0.68;;
67717;SDS011;54511;47.532;19.180;2022-11-15T03:25:05;3.28;;;2.37;;
67717;SDS011;54511;47.532;19.180;2022-11-15T03:27:35;2.20;;;1.60;;
67717;SDS011;54511;47.532;19.180;2022-11-15T03:30:05;7.15;;;1.48;;
67717;SDS011;54511;47.532;19.180;2022-11-15T03:32:35;3.42;;;1.35;;
67717;SDS011;54511;47.532;19.180;2022-11-15T03:35:06;0.85;;;0.85;;
67717;SDS011;54511;47.532;19.180;2022-11-15T03:37:35;1.27;;;1.17;;
67717;SDS011;54511;47.532;19.180;2022-11-15T03:40:04;1.73;;;1.00;;
67717;SDS011;54511;47.532;19.180;2022-11-15T03:42:32;3.80;;;1.65;;
67717;SDS011;54511;47.532;19.180;2022-11-15T03:45:03;1.23;;;0.97;;
67717;SDS011;54511;47.532;19.180;2022-11-15T03:50:03;1.55;;;0.98;;
67717;SDS011;54511;47.532;19.180;2022-11-15T03:52:33;0.75;;;0.68;;
67717;SDS011;54511;47.532;19.180;2022-11-15T03:55:01;0.73;;;0.68;;
67717;SDS011;54511;47.532;19.180;2022-11-15T03:57:30;0.82;;;0.82;;
67717;SDS011;54511;47.532;19.180;2022-11-15T03:59:57;2.03;;;1.02;;
67717;SDS011;54511;47.532;19.180;2022-11-15T04:02:24;0.95;;;0.95;;
67717;SDS011;54511;47.532;19.180;2022-11-15T04:04:52;1.25;;;1.17;;
67717;SDS011;54511;47.532;19.180;2022-11-15T04:07:20;0.20;;;0.20;;
67717;SDS011;54511;47.532;19.180;2022-11-15T04:09:47;7.45;;;1.67;;
67717;SDS011;54511;47.532;19.180;2022-11-15T04:12:28;1.60;;;1.08;;
67717;SDS011;54511;47.532;19.180;2022-11-15T04:15:01;2.35;;;1.15;;
67717;SDS011;54511;47.532;19.180;2022-11-15T04:17:36;2.10;;;1.80;;
67717;SDS011;54511;47.532;19.180;2022-11-15T04:20:07;1.75;;;1.27;;
67717;SDS011;54511;47.532;19.180;2022-11-15T04:22:53;2.60;;;1.10;;
67717;SDS011;54511;47.532;19.180;2022-11-15T04:25:38;2.55;;;1.85;;
67717;SDS011;54511;47.532;19.180;2022-11-15T04:28:05;1.95;;;0.65;;
67717;SDS011;54511;47.532;19.180;2022-11-15T04:30:31;0.45;;;0.45;;
67717;SDS011;54511;47.532;19.180;2022-11-15T04:32:58;1.20;;;1.00;;
67717;SDS011;54511;47.532;19.180;2022-11-15T04:35:26;0.22;;;0.22;;
67717;SDS011;54511;47.532;19.180;2022-11-15T04:37:54;1.00;;;0.73;;
67717;SDS011;54511;47.532;19.180;2022-11-15T04:40:20;4.00;;;2.28;;
67717;SDS011;54511;47.532;19.180;2022-11-15T04:42:47;0.50;;;0.50;;
67717;SDS011;54511;47.532;19.180;2022-11-15T04:45:15;3.20;;;2.03;;
67717;SDS011;54511;47.532;19.180;2022-11-15T04:47:42;0.65;;;0.60;;
67717;SDS011;54511;47.532;19.180;2022-11-15T04:50:10;0.82;;;0.82;;
67717;SDS011;54511;47.532;19.180;2022-11-15T04:52:40;3.12;;;0.88;;
67717;SDS011;54511;47.532;19.180;2022-11-15T04:55:07;2.58;;;1.62;;
67717;SDS011;54511;47.532;19.180;2022-11-15T04:57:34;1.75;;;1.20;;
67717;SDS011;54511;47.532;19.180;2022-11-15T05:00:02;7.85;;;1.85;;
67717;SDS011;54511;47.532;19.180;2022-11-15T05:02:30;5.70;;;2.97;;
67717;SDS011;54511;47.532;19.180;2022-11-15T05:05:16;3.28;;;2.40;;
67717;SDS011;54511;47.532;19.180;2022-11-15T05:07:43;2.47;;;2.25;;
67717;SDS011;54511;47.532;19.180;2022-11-15T05:10:11;2.10;;;1.12;;
67717;SDS011;54511;47.532;19.180;2022-11-15T05:12:38;4.65;;;1.40;;
67717;SDS011;54511;47.532;19.180;2022-11-15T05:15:05;2.65;;;0.75;;
67717;SDS011;54511;47.532;19.180;2022-11-15T05:17:33;5.75;;;2.12;;
67717;SDS011;54511;47.532;19.180;2022-11-15T05:20:00;2.62;;;2.00;;
67717;SDS011;54511;47.532;19.180;2022-11-15T05:22:27;1.55;;;1.45;;
67717;SDS011;54511;47.532;19.180;2022-11-15T05:24:55;1.33;;;1.23;;
67717;SDS011;54511;47.532;19.180;2022-11-15T05:27:22;0.68;;;0.68;;
67717;SDS011;54511;47.532;19.180;2022-11-15T05:29:49;3.15;;;1.40;;
67717;SDS011;54511;47.532;19.180;2022-11-15T05:32:16;2.72;;;1.05;;
67717;SDS011;54511;47.532;19.180;2022-11-15T05:34:43;0.80;;;0.80;;
67717;SDS011;54511;47.532;19.180;2022-11-15T05:37:11;1.40;;;1.30;;
67717;SDS011;54511;47.532;19.180;2022-11-15T05:39:38;1.90;;;1.65;;
67717;SDS011;54511;47.532;19.180;2022-11-15T05:42:07;1.87;;;1.40;;
67717;SDS011;54511;47.532;19.180;2022-11-15T05:44:36;1.10;;;1.00;;
67717;SDS011;54511;47.532;19.180;2022-11-15T05:47:05;1.00;;;0.85;;
67717;SDS011;54511;47.532;19.180;2022-11-15T05:49:33;1.52;;;1.42;;
67717;SDS011;54511;47.532;19.180;2022-11-15T05:52:02;3.30;;;1.70;;
67717;SDS011;54511;47.532;19.180;2022-11-15T05:54:29;1.05;;;0.98;;
67717;SDS011;54511;47.532;19.180;2022-11-15T05:56:57;3.53;;;2.17;;
67717;SDS011;54511;47.532;19.180;2022-11-15T05:59:26;1.67;;;1.52;;
67717;SDS011;54511;47.532;19.180;2022-11-15T06:01:55;1.15;;;1.05;;
67717;SDS011;54511;47.532;19.180;2022-11-15T06:04:22;1.23;;;1.05;;
67717;SDS011;54511;47.532;19.180;2022-11-15T06:06:48;0.75;;;0.75;;
67717;SDS011;54511;47.532;19.180;2022-11-15T06:09:15;1.02;;;1.02;;
67717;SDS011;54511;47.532;19.180;2022-11-15T06:11:42;1.90;;;1.40;;
67717;SDS011;54511;47.532;19.180;2022-11-15T06:14:09;3.78;;;1.30;;
67717;SDS011;54511;47.532;19.180;2022-11-15T06:16:37;1.90;;;1.73;;
67717;SDS011;54511;47.532;19.180;2022-11-15T06:19:05;2.95;;;1.75;;
67717;SDS011;54511;47.532;19.180;2022-11-15T06:21:32;6.57;;;1.98;;
67717;SDS011;54511;47.532;19.180;2022-11-15T06:23:59;2.92;;;2.70;;
67717;SDS011;54511;47.532;19.180;2022-11-15T06:26:26;5.05;;;1.45;;
67717;SDS011;54511;47.532;19.180;2022-11-15T06:28:53;5.12;;;1.83;;
67717;SDS011;54511;47.532;19.180;2022-11-15T06:31:20;1.42;;;1.33;;
67717;SDS011;54511;47.532;19.180;2022-11-15T06:33:49;1.50;;;1.40;;
67717;SDS011;54511;47.532;19.180;2022-11-15T06:36:16;3.22;;;1.95;;
67717;SDS011;54511;47.532;19.180;2022-11-15T06:38:43;0.90;;;0.90;;
67717;SDS011;54511;47.532;19.180;2022-11-15T06:41:10;4.62;;;1.62;;
67717;SDS011;54511;47.532;19.180;2022-11-15T06:43:38;1.45;;;1.35;;
67717;SDS011;54511;47.532;19.180;2022-11-15T06:46:05;2.50;;;1.55;;
67717;SDS011;54511;47.532;19.180;2022-11-15T06:48:33;3.55;;;1.40;;
67717;SDS011;54511;47.532;19.180;2022-11-15T06:51:03;2.35;;;2.08;;
67717;SDS011;54511;47.532;19.180;2022-11-15T06:53:30;1.67;;;1.35;;
67717;SDS011;54511;47.532;19.180;2022-11-15T06:55:58;2.08;;;1.83;;
67717;SDS011;54511;47.532;19.180;2022-11-15T06:58:26;1.27;;;1.20;;
67717;SDS011;54511;47.532;19.180;2022-11-15T07:00:53;1.37;;;1.27;;
67717;SDS011;54511;47.532;19.180;2022-11-15T07:03:20;2.72;;;2.47;;
67717;SDS011;54511;47.532;19.180;2022-11-15T07:05:51;5.87;;;2.53;;
67717;SDS011;54511;47.532;19.180;2022-11-15T07:08:21;0.73;;;0.73;;
67717;SDS011;54511;47.532;19.180;2022-11-15T07:10:48;0.98;;;0.98;;
67717;SDS011;54511;47.532;19.180;2022-11-15T07:13:15;2.55;;;2.20;;
67717;SDS011;54511;47.532;19.180;2022-11-15T07:15:43;2.28;;;1.40;;
67717;SDS011;54511;47.532;19.180;2022-11-15T07:18:12;1.52;;;1.37;;
67717;SDS011;54511;47.532;19.180;2022-11-15T07:20:39;2.17;;;2.03;;
67717;SDS011;54511;47.532;19.180;2022-11-15T07:23:06;7.78;;;4.10;;
67717;SDS011;54511;47.532;19.180;2022-11-15T07:25:35;4.75;;;4.20;;
67717;SDS011;54511;47.532;19.180;2022-11-15T07:28:02;3.50;;;3.17;;
67717;SDS011;54511;47.532;19.180;2022-11-15T07:30:29;5.60;;;3.17;;
67717;SDS011;54511;47.532;19.180;2022-11-15T07:32:59;5.62;;;3.78;;
67717;SDS011;54511;47.532;19.180;2022-11-15T07:35:27;4.78;;;2.95;;
67717;SDS011;54511;47.532;19.180;2022-11-15T07:37:55;2.12;;;1.92;;
67717;SDS011;54511;47.532;19.180;2022-11-15T07:40:22;2.37;;;1.42;;
67717;SDS011;54511;47.532;19.180;2022-11-15T07:43:08;2.45;;;1.87;;
67717;SDS011;54511;47.532;19.180;2022-11-15T07:45:39;0.75;;;0.75;;
67717;SDS011;54511;47.532;19.180;2022-11-15T07:48:12;12.25;;;2.85;;
67717;SDS011;54511;47.532;19.180;2022-11-15T07:50:40;4.37;;;3.12;;
67717;SDS011;54511;47.532;19.180;2022-11-15T07:53:12;4.25;;;2.90;;
67717;SDS011;54511;47.532;19.180;2022-11-15T07:55:44;4.85;;;2.15;;
67717;SDS011;54511;47.532;19.180;2022-11-15T07:58:13;3.58;;;2.30;;
67717;SDS011;54511;47.532;19.180;2022-11-15T08:00:57;5.32;;;4.03;;
67717;SDS011;54511;47.532;19.180;2022-11-15T08:03:24;4.97;;;2.45;;
67717;SDS011;54511;47.532;19.180;2022-11-15T08:05:56;8.13;;;1.35;;
67717;SDS011;54511;47.532;19.180;2022-11-15T08:08:42;1.50;;;1.40;;
67717;SDS011;54511;47.532;19.180;2022-11-15T08:14:38;3.55;;;2.80;;
67717;SDS011;54511;47.532;19.180;2022-11-15T08:17:25;7.95;;;1.92;;
67717;SDS011;54511;47.532;19.180;2022-11-15T08:19:57;3.90;;;2.35;;
67717;SDS011;54511;47.532;19.180;2022-11-15T08:22:24;5.70;;;1.92;;
67717;SDS011;54511;47.532;19.180;2022-11-15T08:24:51;5.37;;;1.98;;
67717;SDS011;54511;47.532;19.180;2022-11-15T08:27:19;8.18;;;4.00;;
67717;SDS011;54511;47.532;19.180;2022-11-15T08:29:47;1.83;;;1.20;;
67717;SDS011;54511;47.532;19.180;2022-11-15T08:32:14;1.15;;;1.10;;
67717;SDS011;54511;47.532;19.180;2022-11-15T08:34:41;3.87;;;1.58;;
67717;SDS011;54511;47.532;19.180;2022-11-15T08:37:08;3.97;;;2.60;;
67717;SDS011;54511;47.532;19.180;2022-11-15T08:39:35;2.42;;;2.25;;
67717;SDS011;54511;47.532;19.180;2022-11-15T08:42:03;6.80;;;2.65;;
67717;SDS011;54511;47.532;19.180;2022-11-15T08:44:32;1.95;;;1.75;;
67717;SDS011;54511;47.532;19.180;2022-11-15T08:46:59;2.15;;;1.62;;
67717;SDS011;54511;47.532;19.180;2022-11-15T08:49:25;6.65;;;2.45;;
67717;SDS011;54511;47.532;19.180;2022-11-15T08:51:52;3.03;;;2.12;;
67717;SDS011;54511;47.532;19.180;2022-11-15T08:54:19;3.42;;;2.35;;
67717;SDS011;54511;47.532;19.180;2022-11-15T08:56:46;3.10;;;2.42;;
67717;SDS011;54511;47.532;19.180;2022-11-15T08:59:13;5.45;;;3.53;;
67717;SDS011;54511;47.532;19.180;2022-11-15T09:01:41;5.00;;;1.62;;
67717;SDS011;54511;47.532;19.180;2022-11-15T09:04:08;2.75;;;1.20;;
67717;SDS011;54511;47.532;19.180;2022-11-15T09:06:35;2.67;;;2.47;;
67717;SDS011;54511;47.532;19.180;2022-11-15T09:09:03;3.53;;;2.42;;
67717;SDS011;54511;47.532;19.180;2022-11-15T09:11:31;7.55;;;3.87;;
67717;SDS011;54511;47.532;19.180;2022-11-15T09:13:58;3.22;;;2.12;;
67717;SDS011;54511;47.532;19.180;2022-11-15T09:16:25;3.62;;;2.65;;
67717;SDS011;54511;47.532;19.180;2022-11-15T09:18:53;3.35;;;2.05;;
67717;SDS011;54511;47.532;19.180;2022-11-15T09:21:20;4.25;;;3.08;;
67717;SDS011;54511;47.532;19.180;2022-11-15T09:23:52;11.30;;;4.12;;
67717;SDS011;54511;47.532;19.180;2022-11-15T09:26:19;5.75;;;3.40;;
67717;SDS011;54511;47.532;19.180;2022-11-15T09:28:46;4.15;;;2.47;;
67717;SDS011;54511;47.532;19.180;2022-11-15T09:31:13;5.45;;;2.78;;
67717;SDS011;54511;47.532;19.180;2022-11-15T09:33:40;4.70;;;3.62;;
67717;SDS011;54511;47.532;19.180;2022-11-15T09:36:11;6.05;;;3.92;;
67717;SDS011;54511;47.532;19.180;2022-11-15T09:38:39;3.85;;;3.17;;
67717;SDS011;54511;47.532;19.180;2022-11-15T09:44:16;4.50;;;3.72;;
67717;SDS011;54511;47.532;19.180;2022-11-15T09:46:52;4.90;;;3.72;;
67717;SDS011;54511;47.532;19.180;2022-11-15T09:49:24;6.12;;;2.95;;
67717;SDS011;54511;47.532;19.180;2022-11-15T09:51:53;4.95;;;3.15;;
67717;SDS011;54511;47.532;19.180;2022-11-15T09:54:23;4.97;;;3.65;;
67717;SDS011;54511;47.532;19.180;2022-11-15T09:56:54;2.33;;;1.90;;
67717;SDS011;54511;47.532;19.180;2022-11-15T09:59:28;3.67;;;2.92;;
67717;SDS011;54511;47.532;19.180;2022-11-15T10:02:14;4.93;;;2.97;;
67717;SDS011;54511;47.532;19.180;2022-11-15T10:04:50;3.83;;;3.03;;
67717;SDS011;54511;47.532;19.180;2022-11-15T10:07:20;9.90;;;2.78;;
67717;SDS011;54511;47.532;19.180;2022-11-15T10:09:51;3.72;;;3.08;;
67717;SDS011;54511;47.532;19.180;2022-11-15T10:14:48;2.25;;;2.05;;
67717;SDS011;54511;47.532;19.180;2022-11-15T10:20:02;1.60;;;1.42;;
67717;SDS011;54511;47.532;19.180;2022-11-15T10:22:38;6.50;;;2.22;;
67717;SDS011;54511;47.532;19.180;2022-11-15T10:25:14;3.33;;;2.95;;
67717;SDS011;54511;47.532;19.180;2022-11-15T10:27:44;3.87;;;2.92;;
67717;SDS011;54511;47.532;19.180;2022-11-15T10:30:15;6.07;;;4.10;;
67717;SDS011;54511;47.532;19.180;2022-11-15T10:32:44;6.80;;;3.45;;
67717;SDS011;54511;47.532;19.180;2022-11-15T10:35:16;4.82;;;2.85;;
67717;SDS011;54511;47.532;19.180;2022-11-15T10:37:46;4.30;;;2.95;;
67717;SDS011;54511;47.532;19.180;2022-11-15T10:40:17;3.45;;;2.58;;
67717;SDS011;54511;47.532;19.180;2022-11-15T10:42:45;3.30;;;2.22;;
67717;SDS011;54511;47.532;19.180;2022-11-15T10:45:25;6.18;;;3.45;;
67717;SDS011;54511;47.532;19.180;2022-11-15T10:47:54;3.95;;;3.10;;
67717;SDS011;54511;47.532;19.180;2022-11-15T10:50:48;3.53;;;1.83;;
67717;SDS011;54511;47.532;19.180;2022-11-15T10:53:19;5.53;;;4.05;;
67717;SDS011;54511;47.532;19.180;2022-11-15T10:55:52;4.87;;;2.55;;
67717;SDS011;54511;47.532;19.180;2022-11-15T10:58:21;7.65;;;3.87;;
67717;SDS011;54511;47.532;19.180;2022-11-15T11:01:08;3.58;;;1.80;;
67717;SDS011;54511;47.532;19.180;2022-11-15T11:03:36;3.33;;;2.53;;
67717;SDS011;54511;47.532;19.180;2022-11-15T11:06:09;7.82;;;4.10;;
67717;SDS011;54511;47.532;19.180;2022-11-15T11:08:39;5.97;;;2.25;;
67717;SDS011;54511;47.532;19.180;2022-11-15T11:11:06;3.92;;;2.97;;
67717;SDS011;54511;47.532;19.180;2022-11-15T11:13:34;5.10;;;2.72;;
67717;SDS011;54511;47.532;19.180;2022-11-15T11:16:17;7.35;;;3.10;;
67717;SDS011;54511;47.532;19.180;2022-11-15T11:18:49;5.12;;;3.33;;
67717;SDS011;54511;47.532;19.180;2022-11-15T11:21:22;4.55;;;3.30;;
67717;SDS011;54511;47.532;19.180;2022-11-15T11:23:54;8.68;;;2.75;;
67717;SDS011;54511;47.532;19.180;2022-11-15T11:26:30;7.47;;;2.22;;
67717;SDS011;54511;47.532;19.180;2022-11-15T11:29:04;5.47;;;4.00;;
67717;SDS011;54511;47.532;19.180;2022-11-15T11:31:41;2.78;;;2.55;;
67717;SDS011;54511;47.532;19.180;2022-11-15T11:34:15;3.58;;;2.45;;
67717;SDS011;54511;47.532;19.180;2022-11-15T11:36:45;8.75;;;2.05;;
67717;SDS011;54511;47.532;19.180;2022-11-15T11:39:24;7.95;;;3.50;;
67717;SDS011;54511;47.532;19.180;2022-11-15T11:42:00;4.20;;;2.80;;
67717;SDS011;54511;47.532;19.180;2022-11-15T11:44:32;2.05;;;1.90;;
67717;SDS011;54511;47.532;19.180;2022-11-15T11:47:03;1.40;;;1.30;;
67717;SDS011;54511;47.532;19.180;2022-11-15T11:49:34;2.97;;;1.60;;
67717;SDS011;54511;47.532;19.180;2022-11-15T11:52:09;5.82;;;3.20;;
67717;SDS011;54511;47.532;19.180;2022-11-15T11:54:45;4.28;;;2.60;;
67717;SDS011;54511;47.532;19.180;2022-11-15T11:57:17;2.53;;;2.22;;
67717;SDS011;54511;47.532;19.180;2022-11-15T11:59:51;3.85;;;2.12;;
67717;SDS011;54511;47.532;19.180;2022-11-15T12:02:25;2.62;;;2.20;;
67717;SDS011;54511;47.532;19.180;2022-11-15T12:04:57;9.00;;;3.55;;
67717;SDS011;54511;47.532;19.180;2022-11-15T12:07:29;4.47;;;3.17;;
67717;SDS011;54511;47.532;19.180;2022-11-15T12:10:01;13.55;;;2.35;;
67717;SDS011;54511;47.532;19.180;2022-11-15T12:12:32;4.90;;;2.95;;
67717;SDS011;54511;47.532;19.180;2022-11-15T12:17:30;2.08;;;1.90;;
67717;SDS011;54511;47.532;19.180;2022-11-15T12:19:58;2.58;;;2.37;;
67717;SDS011;54511;47.532;19.180;2022-11-15T12:22:28;3.65;;;3.00;;
67717;SDS011;54511;47.532;19.180;2022-11-15T12:25:04;3.67;;;2.28;;
67717;SDS011;54511;47.532;19.180;2022-11-15T12:27:33;3.97;;;1.57;;
67717;SDS011;54511;47.532;19.180;2022-11-15T12:30:04;3.35;;;2.78;;
67717;SDS011;54511;47.532;19.180;2022-11-15T12:32:36;2.37;;;2.12;;
67717;SDS011;54511;47.532;19.180;2022-11-15T12:35:05;3.17;;;2.53;;
67717;SDS011;54511;47.532;19.180;2022-11-15T12:37:47;3.60;;;2.37;;
67717;SDS011;54511;47.532;19.180;2022-11-15T12:40:25;3.25;;;1.83;;
67717;SDS011;54511;47.532;19.180;2022-11-15T12:43:03;3.47;;;2.12;;
67717;SDS011;54511;47.532;19.180;2022-11-15T12:45:51;3.28;;;2.97;;
67717;SDS011;54511;47.532;19.180;2022-11-15T12:51:22;4.53;;;2.80;;
67717;SDS011;54511;47.532;19.180;2022-11-15T12:57:23;3.75;;;3.42;;
67717;SDS011;54511;47.532;19.180;2022-11-15T13:03:27;4.10;;;2.45;;
67717;SDS011;54511;47.532;19.180;2022-11-15T13:05:56;4.00;;;3.40;;
67717;SDS011;54511;47.532;19.180;2022-11-15T13:08:44;6.68;;;2.45;;
67717;SDS011;54511;47.532;19.180;2022-11-15T13:17:26;2.67;;;1.95;;
67717;SDS011;54511;47.532;19.180;2022-11-15T13:20:02;2.62;;;2.20;;
67717;SDS011;54511;47.532;19.180;2022-11-15T13:22:45;2.25;;;2.05;;
67717;SDS011;54511;47.532;19.180;2022-11-15T13:28:29;3.30;;;2.92;;
67717;SDS011;54511;47.532;19.180;2022-11-15T13:31:01;3.17;;;2.47;;
67717;SDS011;54511;47.532;19.180;2022-11-15T13:33:33;2.30;;;2.08;;
67717;SDS011;54511;47.532;19.180;2022-11-15T13:36:02;3.53;;;2.70;;
67717;SDS011;54511;47.532;19.180;2022-11-15T13:38:33;4.62;;;3.33;;
67717;SDS011;54511;47.532;19.180;2022-11-15T13:41:10;5.87;;;2.35;;
67717;SDS011;54511;47.532;19.180;2022-11-15T13:43:40;3.00;;;2.35;;
67717;SDS011;54511;47.532;19.180;2022-11-15T13:46:15;4.30;;;2.80;;
67717;SDS011;54511;47.532;19.180;2022-11-15T13:48:43;2.75;;;2.25;;
67717;SDS011;54511;47.532;19.180;2022-11-15T13:51:14;6.72;;;3.42;;
67717;SDS011;54511;47.532;19.180;2022-11-15T13:53:44;4.75;;;4.18;;
67717;SDS011;54511;47.532;19.180;2022-11-15T13:56:13;5.30;;;3.62;;
67717;SDS011;54511;47.532;19.180;2022-11-15T13:58:40;6.15;;;4.47;;
67717;SDS011;54511;47.532;19.180;2022-11-15T14:01:11;4.65;;;3.05;;
67717;SDS011;54511;47.532;19.180;2022-11-15T14:03:47;3.87;;;2.80;;
67717;SDS011;54511;47.532;19.180;2022-11-15T14:06:16;2.95;;;2.47;;
67717;SDS011;54511;47.532;19.180;2022-11-15T14:08:57;3.55;;;1.40;;
67717;SDS011;54511;47.532;19.180;2022-11-15T14:11:30;2.45;;;2.25;;
67717;SDS011;54511;47.532;19.180;2022-11-15T14:13:59;3.42;;;1.95;;
67717;SDS011;54511;47.532;19.180;2022-11-15T14:16:43;5.70;;;2.10;;
67717;SDS011;54511;47.532;19.180;2022-11-15T14:19:11;4.37;;;2.15;;
67717;SDS011;54511;47.532;19.180;2022-11-15T14:24:41;1.75;;;1.45;;
67717;SDS011;54511;47.532;19.180;2022-11-15T14:27:18;6.78;;;3.53;;
67717;SDS011;54511;47.532;19.180;2022-11-15T14:29:49;4.18;;;1.75;;
67717;SDS011;54511;47.532;19.180;2022-11-15T14:32:18;3.42;;;1.35;;
67717;SDS011;54511;47.532;19.180;2022-11-15T14:34:46;3.10;;;2.12;;
67717;SDS011;54511;47.532;19.180;2022-11-15T14:37:20;2.95;;;1.90;;
67717;SDS011;54511;47.532;19.180;2022-11-15T14:39:49;2.75;;;2.25;;
67717;SDS011;54511;47.532;19.180;2022-11-15T14:42:16;4.40;;;1.80;;
67717;SDS011;54511;47.532;19.180;2022-11-15T14:44:44;2.58;;;2.08;;
67717;SDS011;54511;47.532;19.180;2022-11-15T14:47:11;2.75;;;2.03;;
67717;SDS011;54511;47.532;19.180;2022-11-15T14:49:39;1.98;;;1.58;;
67717;SDS011;54511;47.532;19.180;2022-11-15T14:52:19;3.30;;;2.53;;
67717;SDS011;54511;47.532;19.180;2022-11-15T14:54:50;3.53;;;2.33;;
67717;SDS011;54511;47.532;19.180;2022-11-15T14:57:17;1.80;;;1.65;;
67717;SDS011;54511;47.532;19.180;2022-11-15T14:59:44;3.03;;;2.28;;
67717;SDS011;54511;47.532;19.180;2022-11-15T15:02:13;7.75;;;2.40;;
67717;SDS011;54511;47.532;19.180;2022-11-15T15:04:44;3.35;;;1.23;;
67717;SDS011;54511;47.532;19.180;2022-11-15T15:07:11;3.85;;;2.25;;
67717;SDS011;54511;47.532;19.180;2022-11-15T15:09:37;2.75;;;2.20;;
67717;SDS011;54511;47.532;19.180;2022-11-15T15:12:04;3.03;;;2.53;;
67717;SDS011;54511;47.532;19.180;2022-11-15T15:14:32;4.12;;;3.05;;
67717;SDS011;54511;47.532;19.180;2022-11-15T15:17:00;0.82;;;0.82;;
67717;SDS011;54511;47.532;19.180;2022-11-15T15:19:27;3.83;;;2.17;;
67717;SDS011;54511;47.532;19.180;2022-11-15T15:21:55;2.90;;;1.87;;
67717;SDS011;54511;47.532;19.180;2022-11-15T15:24:22;6.80;;;2.55;;
67717;SDS011;54511;47.532;19.180;2022-11-15T15:26:49;3.53;;;2.70;;
67717;SDS011;54511;47.532;19.180;2022-11-15T15:29:17;4.50;;;2.78;;
67717;SDS011;54511;47.532;19.180;2022-11-15T15:31:44;2.58;;;2.37;;
67717;SDS011;54511;47.532;19.180;2022-11-15T15:34:11;10.60;;;3.60;;